sensor_id;sensor_type;location;lat;lon;timestamp;P1;durP1;ratioP1;P2;durP2;ratioP2
32505;SDS011;18955;51.224;8.482;2022-12-18T00:00:47;0.63;;;0.38;;
32505;SDS011;18955;51.224;8.482;2022-12-18T00:03:14;0.20;;;0.20;;
32505;SDS011;18955;51.224;8.482;2022-12-18T00:05:50;0.40;;;0.40;;
32505;SDS011;18955;51.224;8.482;2022-12-18T00:08:18;0.30;;;0.30;;
32505;SDS011;18955;51.224;8.482;2022-12-18T00:13:11;0.43;;;0.43;;
32505;SDS011;18955;51.224;8.482;2022-12-18T00:15:38;0.20;;;0.20;;
32505;SDS011;18955;51.224;8.482;2022-12-18T00:18:05;0.85;;;0.40;;
32505;SDS011;18955;51.224;8.482;2022-12-18T00:20:35;0.30;;;0.30;;
32505;SDS011;18955;51.224;8.482;2022-12-18T00:23:02;0.43;;;0.40;;
32505;SDS011;18955;51.224;8.482;2022-12-18T00:25:28;0.20;;;0.20;;
32505;SDS011;18955;51.224;8.482;2022-12-18T00:27:54;0.38;;;0.38;;
32505;SDS011;18955;51.224;8.482;2022-12-18T00:30:21;0.80;;;0.50;;
32505;SDS011;18955;51.224;8.482;2022-12-18T00:32:47;0.20;;;0.20;;
32505;SDS011;18955;51.224;8.482;2022-12-18T00:35:13;0.20;;;0.20;;
32505;SDS011;18955;51.224;8.482;2022-12-18T00:37:39;0.30;;;0.30;;
32505;SDS011;18955;51.224;8.482;2022-12-18T00:40:06;0.20;;;0.20;;
32505;SDS011;18955;51.224;8.482;2022-12-18T00:42:32;0.40;;;0.40;;
32505;SDS011;18955;51.224;8.482;2022-12-18T00:45:17;2.70;;;0.45;;
32505;SDS011;18955;51.224;8.482;2022-12-18T00:47:43;0.30;;;0.30;;
32505;SDS011;18955;51.224;8.482;2022-12-18T00:50:10;0.40;;;0.40;;
32505;SDS011;18955;51.224;8.482;2022-12-18T00:52:36;0.20;;;0.20;;
32505;SDS011;18955;51.224;8.482;2022-12-18T00:55:03;0.22;;;0.22;;
32505;SDS011;18955;51.224;8.482;2022-12-18T00:57:29;0.45;;;0.45;;
32505;SDS011;18955;51.224;8.482;2022-12-18T00:59:55;0.38;;;0.38;;
32505;SDS011;18955;51.224;8.482;2022-12-18T01:02:22;0.28;;;0.25;;
32505;SDS011;18955;51.224;8.482;2022-12-18T01:04:48;0.20;;;0.20;;
32505;SDS011;18955;51.224;8.482;2022-12-18T01:07:18;0.32;;;0.32;;
32505;SDS011;18955;51.224;8.482;2022-12-18T01:09:45;0.22;;;0.22;;
32505;SDS011;18955;51.224;8.482;2022-12-18T01:12:11;0.50;;;0.40;;
32505;SDS011;18955;51.224;8.482;2022-12-18T01:14:37;0.30;;;0.30;;
32505;SDS011;18955;51.224;8.482;2022-12-18T01:17:03;0.32;;;0.32;;
32505;SDS011;18955;51.224;8.482;2022-12-18T01:19:32;1.15;;;1.00;;
32505;SDS011;18955;51.224;8.482;2022-12-18T01:21:58;0.20;;;0.20;;
32505;SDS011;18955;51.224;8.482;2022-12-18T01:24:24;0.20;;;0.20;;
32505;SDS011;18955;51.224;8.482;2022-12-18T01:26:51;0.30;;;0.30;;
32505;SDS011;18955;51.224;8.482;2022-12-18T01:29:17;0.30;;;0.30;;
32505;SDS011;18955;51.224;8.482;2022-12-18T01:31:43;1.65;;;0.60;;
32505;SDS011;18955;51.224;8.482;2022-12-18T01:34:09;0.43;;;0.43;;
32505;SDS011;18955;51.224;8.482;2022-12-18T01:36:36;0.13;;;0.13;;
32505;SDS011;18955;51.224;8.482;2022-12-18T01:39:05;0.30;;;0.30;;
32505;SDS011;18955;51.224;8.482;2022-12-18T01:41:33;0.22;;;0.22;;
32505;SDS011;18955;51.224;8.482;2022-12-18T01:47:15;0.20;;;0.20;;
32505;SDS011;18955;51.224;8.482;2022-12-18T01:52:15;0.20;;;0.20;;
32505;SDS011;18955;51.224;8.482;2022-12-18T01:54:43;0.30;;;0.30;;
32505;SDS011;18955;51.224;8.482;2022-12-18T01:57:10;0.20;;;0.20;;
32505;SDS011;18955;51.224;8.482;2022-12-18T01:59:37;0.45;;;0.40;;
32505;SDS011;18955;51.224;8.482;2022-12-18T02:02:06;0.20;;;0.20;;
32505;SDS011;18955;51.224;8.482;2022-12-18T02:04:33;0.20;;;0.20;;
32505;SDS011;18955;51.224;8.482;2022-12-18T02:07:09;0.20;;;0.20;;
32505;SDS011;18955;51.224;8.482;2022-12-18T02:09:46;0.28;;;0.28;;
32505;SDS011;18955;51.224;8.482;2022-12-18T02:12:20;0.13;;;0.13;;
32505;SDS011;18955;51.224;8.482;2022-12-18T02:14:55;0.32;;;0.32;;
32505;SDS011;18955;51.224;8.482;2022-12-18T02:17:37;0.20;;;0.20;;
32505;SDS011;18955;51.224;8.482;2022-12-18T02:26:01;0.30;;;0.30;;
32505;SDS011;18955;51.224;8.482;2022-12-18T02:28:31;0.40;;;0.40;;
32505;SDS011;18955;51.224;8.482;2022-12-18T02:31:05;0.55;;;0.55;;
32505;SDS011;18955;51.224;8.482;2022-12-18T02:33:35;0.22;;;0.22;;
32505;SDS011;18955;51.224;8.482;2022-12-18T02:36:03;0.30;;;0.30;;
32505;SDS011;18955;51.224;8.482;2022-12-18T02:38:32;0.30;;;0.30;;
32505;SDS011;18955;51.224;8.482;2022-12-18T02:41:06;0.20;;;0.20;;
32505;SDS011;18955;51.224;8.482;2022-12-18T02:43:34;0.20;;;0.20;;
32505;SDS011;18955;51.224;8.482;2022-12-18T02:46:20;0.20;;;0.20;;
32505;SDS011;18955;51.224;8.482;2022-12-18T02:48:51;0.20;;;0.20;;
32505;SDS011;18955;51.224;8.482;2022-12-18T02:51:26;0.85;;;0.25;;
32505;SDS011;18955;51.224;8.482;2022-12-18T02:54:00;0.20;;;0.20;;
32505;SDS011;18955;51.224;8.482;2022-12-18T02:56:46;0.45;;;0.45;;
32505;SDS011;18955;51.224;8.482;2022-12-18T02:59:22;0.35;;;0.35;;
32505;SDS011;18955;51.224;8.482;2022-12-18T03:02:02;0.50;;;0.30;;
32505;SDS011;18955;51.224;8.482;2022-12-18T03:04:39;0.35;;;0.35;;
32505;SDS011;18955;51.224;8.482;2022-12-18T03:07:18;0.20;;;0.20;;
32505;SDS011;18955;51.224;8.482;2022-12-18T03:09:52;0.30;;;0.30;;
32505;SDS011;18955;51.224;8.482;2022-12-18T03:12:34;0.90;;;0.45;;
32505;SDS011;18955;51.224;8.482;2022-12-18T03:17:44;0.40;;;0.40;;
32505;SDS011;18955;51.224;8.482;2022-12-18T03:20:17;0.30;;;0.30;;
32505;SDS011;18955;51.224;8.482;2022-12-18T03:22:46;0.40;;;0.35;;
32505;SDS011;18955;51.224;8.482;2022-12-18T03:25:18;0.32;;;0.32;;
32505;SDS011;18955;51.224;8.482;2022-12-18T03:27:47;0.40;;;0.40;;
32505;SDS011;18955;51.224;8.482;2022-12-18T03:30:16;0.85;;;0.30;;
32505;SDS011;18955;51.224;8.482;2022-12-18T03:35:33;0.38;;;0.38;;
32505;SDS011;18955;51.224;8.482;2022-12-18T03:38:04;0.50;;;0.50;;
32505;SDS011;18955;51.224;8.482;2022-12-18T03:43:16;5.82;;;0.85;;
32505;SDS011;18955;51.224;8.482;2022-12-18T03:45:52;0.15;;;0.15;;
32505;SDS011;18955;51.224;8.482;2022-12-18T03:48:27;0.20;;;0.20;;
32505;SDS011;18955;51.224;8.482;2022-12-18T03:51:11;0.73;;;0.40;;
32505;SDS011;18955;51.224;8.482;2022-12-18T03:53:49;0.73;;;0.25;;
32505;SDS011;18955;51.224;8.482;2022-12-18T03:59:01;0.20;;;0.20;;
32505;SDS011;18955;51.224;8.482;2022-12-18T04:01:32;0.57;;;0.57;;
32505;SDS011;18955;51.224;8.482;2022-12-18T04:04:01;0.30;;;0.30;;
32505;SDS011;18955;51.224;8.482;2022-12-18T04:06:32;0.88;;;0.60;;
32505;SDS011;18955;51.224;8.482;2022-12-18T04:09:01;0.10;;;0.10;;
32505;SDS011;18955;51.224;8.482;2022-12-18T04:11:30;0.30;;;0.30;;
32505;SDS011;18955;51.224;8.482;2022-12-18T04:16:24;0.10;;;0.10;;
32505;SDS011;18955;51.224;8.482;2022-12-18T04:18:56;0.20;;;0.20;;
32505;SDS011;18955;51.224;8.482;2022-12-18T04:21:24;0.20;;;0.20;;
32505;SDS011;18955;51.224;8.482;2022-12-18T04:23:51;0.40;;;0.40;;
32505;SDS011;18955;51.224;8.482;2022-12-18T04:26:20;0.65;;;0.60;;
32505;SDS011;18955;51.224;8.482;2022-12-18T04:28:57;0.30;;;0.30;;
32505;SDS011;18955;51.224;8.482;2022-12-18T04:31:24;0.25;;;0.25;;
32505;SDS011;18955;51.224;8.482;2022-12-18T04:33:50;0.50;;;0.50;;
32505;SDS011;18955;51.224;8.482;2022-12-18T04:36:16;1.65;;;1.17;;
32505;SDS011;18955;51.224;8.482;2022-12-18T04:38:44;0.40;;;0.40;;
32505;SDS011;18955;51.224;8.482;2022-12-18T04:41:14;0.38;;;0.38;;
32505;SDS011;18955;51.224;8.482;2022-12-18T04:43:42;0.52;;;0.38;;
32505;SDS011;18955;51.224;8.482;2022-12-18T04:46:08;0.20;;;0.20;;
32505;SDS011;18955;51.224;8.482;2022-12-18T04:48:35;0.20;;;0.20;;
32505;SDS011;18955;51.224;8.482;2022-12-18T04:51:01;0.30;;;0.30;;
32505;SDS011;18955;51.224;8.482;2022-12-18T04:53:28;0.43;;;0.30;;
32505;SDS011;18955;51.224;8.482;2022-12-18T04:56:08;0.17;;;0.17;;
32505;SDS011;18955;51.224;8.482;2022-12-18T04:58:39;0.30;;;0.30;;
32505;SDS011;18955;51.224;8.482;2022-12-18T05:01:07;0.30;;;0.30;;
32505;SDS011;18955;51.224;8.482;2022-12-18T05:03:34;0.40;;;0.30;;
32505;SDS011;18955;51.224;8.482;2022-12-18T05:06:01;0.85;;;0.32;;
32505;SDS011;18955;51.224;8.482;2022-12-18T05:08:28;0.90;;;0.90;;
32505;SDS011;18955;51.224;8.482;2022-12-18T05:10:58;0.20;;;0.20;;
32505;SDS011;18955;51.224;8.482;2022-12-18T05:13:29;0.80;;;0.52;;
32505;SDS011;18955;51.224;8.482;2022-12-18T05:15:56;0.40;;;0.40;;
32505;SDS011;18955;51.224;8.482;2022-12-18T05:18:22;4.65;;;1.00;;
32505;SDS011;18955;51.224;8.482;2022-12-18T05:20:49;2.47;;;0.32;;
32505;SDS011;18955;51.224;8.482;2022-12-18T05:23:16;0.20;;;0.20;;
32505;SDS011;18955;51.224;8.482;2022-12-18T05:25:46;0.60;;;0.60;;
32505;SDS011;18955;51.224;8.482;2022-12-18T05:28:34;0.28;;;0.28;;
32505;SDS011;18955;51.224;8.482;2022-12-18T05:31:02;0.45;;;0.32;;
32505;SDS011;18955;51.224;8.482;2022-12-18T05:33:30;0.60;;;0.60;;
32505;SDS011;18955;51.224;8.482;2022-12-18T05:35:58;2.30;;;0.45;;
32505;SDS011;18955;51.224;8.482;2022-12-18T05:38:26;1.55;;;1.38;;
32505;SDS011;18955;51.224;8.482;2022-12-18T05:40:54;0.22;;;0.22;;
32505;SDS011;18955;51.224;8.482;2022-12-18T05:43:21;0.20;;;0.20;;
32505;SDS011;18955;51.224;8.482;2022-12-18T05:45:48;0.20;;;0.20;;
32505;SDS011;18955;51.224;8.482;2022-12-18T05:48:15;0.25;;;0.25;;
32505;SDS011;18955;51.224;8.482;2022-12-18T05:53:11;0.10;;;0.10;;
32505;SDS011;18955;51.224;8.482;2022-12-18T05:55:38;0.40;;;0.40;;
32505;SDS011;18955;51.224;8.482;2022-12-18T05:58:06;0.40;;;0.40;;
32505;SDS011;18955;51.224;8.482;2022-12-18T06:00:34;0.40;;;0.40;;
32505;SDS011;18955;51.224;8.482;2022-12-18T06:03:05;1.35;;;1.25;;
32505;SDS011;18955;51.224;8.482;2022-12-18T06:05:36;0.43;;;0.43;;
32505;SDS011;18955;51.224;8.482;2022-12-18T06:08:03;0.43;;;0.30;;
32505;SDS011;18955;51.224;8.482;2022-12-18T06:10:30;0.20;;;0.20;;
32505;SDS011;18955;51.224;8.482;2022-12-18T06:15:22;0.20;;;0.20;;
32505;SDS011;18955;51.224;8.482;2022-12-18T06:17:48;1.17;;;1.02;;
32505;SDS011;18955;51.224;8.482;2022-12-18T06:20:15;0.20;;;0.20;;
32505;SDS011;18955;51.224;8.482;2022-12-18T06:22:41;0.30;;;0.30;;
32505;SDS011;18955;51.224;8.482;2022-12-18T06:25:07;0.30;;;0.30;;
32505;SDS011;18955;51.224;8.482;2022-12-18T06:27:34;0.30;;;0.30;;
32505;SDS011;18955;51.224;8.482;2022-12-18T06:30:00;0.20;;;0.20;;
32505;SDS011;18955;51.224;8.482;2022-12-18T06:32:26;0.40;;;0.40;;
32505;SDS011;18955;51.224;8.482;2022-12-18T06:34:52;1.88;;;0.52;;
32505;SDS011;18955;51.224;8.482;2022-12-18T06:37:21;1.65;;;0.95;;
32505;SDS011;18955;51.224;8.482;2022-12-18T06:39:50;0.20;;;0.20;;
32505;SDS011;18955;51.224;8.482;2022-12-18T06:42:16;0.47;;;0.47;;
32505;SDS011;18955;51.224;8.482;2022-12-18T06:44:42;0.45;;;0.40;;
32505;SDS011;18955;51.224;8.482;2022-12-18T06:47:09;0.63;;;0.38;;
32505;SDS011;18955;51.224;8.482;2022-12-18T06:49:35;0.63;;;0.55;;
32505;SDS011;18955;51.224;8.482;2022-12-18T06:52:01;0.25;;;0.25;;
32505;SDS011;18955;51.224;8.482;2022-12-18T06:54:27;0.20;;;0.20;;
32505;SDS011;18955;51.224;8.482;2022-12-18T06:56:55;0.40;;;0.40;;
32505;SDS011;18955;51.224;8.482;2022-12-18T06:59:21;0.40;;;0.40;;
32505;SDS011;18955;51.224;8.482;2022-12-18T07:01:48;0.45;;;0.45;;
32505;SDS011;18955;51.224;8.482;2022-12-18T07:04:14;0.60;;;0.60;;
32505;SDS011;18955;51.224;8.482;2022-12-18T07:06:40;0.50;;;0.50;;
32505;SDS011;18955;51.224;8.482;2022-12-18T07:09:06;0.47;;;0.45;;
32505;SDS011;18955;51.224;8.482;2022-12-18T07:11:32;0.43;;;0.43;;
32505;SDS011;18955;51.224;8.482;2022-12-18T07:13:59;0.90;;;0.60;;
32505;SDS011;18955;51.224;8.482;2022-12-18T07:16:25;0.32;;;0.32;;
32505;SDS011;18955;51.224;8.482;2022-12-18T07:18:54;0.52;;;0.52;;
32505;SDS011;18955;51.224;8.482;2022-12-18T07:21:21;0.20;;;0.20;;
32505;SDS011;18955;51.224;8.482;2022-12-18T07:23:49;0.50;;;0.50;;
32505;SDS011;18955;51.224;8.482;2022-12-18T07:26:16;0.20;;;0.20;;
32505;SDS011;18955;51.224;8.482;2022-12-18T07:28:44;1.35;;;0.50;;
32505;SDS011;18955;51.224;8.482;2022-12-18T07:31:11;0.43;;;0.20;;
32505;SDS011;18955;51.224;8.482;2022-12-18T07:33:39;1.45;;;0.70;;
32505;SDS011;18955;51.224;8.482;2022-12-18T07:36:06;0.40;;;0.40;;
32505;SDS011;18955;51.224;8.482;2022-12-18T07:38:34;0.65;;;0.57;;
32505;SDS011;18955;51.224;8.482;2022-12-18T07:41:01;0.32;;;0.32;;
32505;SDS011;18955;51.224;8.482;2022-12-18T07:43:29;0.30;;;0.30;;
32505;SDS011;18955;51.224;8.482;2022-12-18T07:45:55;0.10;;;0.10;;
32505;SDS011;18955;51.224;8.482;2022-12-18T07:48:21;0.30;;;0.30;;
32505;SDS011;18955;51.224;8.482;2022-12-18T07:50:48;6.88;;;0.88;;
32505;SDS011;18955;51.224;8.482;2022-12-18T07:53:14;0.30;;;0.30;;
32505;SDS011;18955;51.224;8.482;2022-12-18T07:55:41;1.23;;;0.70;;
32505;SDS011;18955;51.224;8.482;2022-12-18T07:58:07;0.47;;;0.47;;
32505;SDS011;18955;51.224;8.482;2022-12-18T08:00:34;0.40;;;0.40;;
32505;SDS011;18955;51.224;8.482;2022-12-18T08:03:01;0.45;;;0.45;;
32505;SDS011;18955;51.224;8.482;2022-12-18T08:05:27;0.40;;;0.40;;
32505;SDS011;18955;51.224;8.482;2022-12-18T08:07:54;0.17;;;0.17;;
32505;SDS011;18955;51.224;8.482;2022-12-18T08:10:20;1.90;;;0.95;;
32505;SDS011;18955;51.224;8.482;2022-12-18T08:12:50;0.20;;;0.20;;
32505;SDS011;18955;51.224;8.482;2022-12-18T08:15:17;0.28;;;0.28;;
32505;SDS011;18955;51.224;8.482;2022-12-18T08:17:43;1.55;;;0.93;;
32505;SDS011;18955;51.224;8.482;2022-12-18T08:20:09;0.20;;;0.20;;
32505;SDS011;18955;51.224;8.482;2022-12-18T08:22:36;0.88;;;0.65;;
32505;SDS011;18955;51.224;8.482;2022-12-18T08:25:02;0.20;;;0.20;;
32505;SDS011;18955;51.224;8.482;2022-12-18T08:27:29;0.28;;;0.28;;
32505;SDS011;18955;51.224;8.482;2022-12-18T08:29:56;0.63;;;0.63;;
32505;SDS011;18955;51.224;8.482;2022-12-18T08:32:22;0.30;;;0.30;;
32505;SDS011;18955;51.224;8.482;2022-12-18T08:34:49;0.60;;;0.60;;
32505;SDS011;18955;51.224;8.482;2022-12-18T08:37:15;0.50;;;0.50;;
32505;SDS011;18955;51.224;8.482;2022-12-18T08:39:42;1.17;;;0.65;;
32505;SDS011;18955;51.224;8.482;2022-12-18T08:42:08;1.35;;;0.82;;
32505;SDS011;18955;51.224;8.482;2022-12-18T08:44:53;0.60;;;0.60;;
32505;SDS011;18955;51.224;8.482;2022-12-18T08:47:19;0.30;;;0.30;;
32505;SDS011;18955;51.224;8.482;2022-12-18T08:49:45;0.20;;;0.20;;
32505;SDS011;18955;51.224;8.482;2022-12-18T08:52:11;0.20;;;0.20;;
32505;SDS011;18955;51.224;8.482;2022-12-18T08:54:37;0.30;;;0.30;;
32505;SDS011;18955;51.224;8.482;2022-12-18T08:57:04;0.28;;;0.28;;
32505;SDS011;18955;51.224;8.482;2022-12-18T08:59:30;2.92;;;1.50;;
32505;SDS011;18955;51.224;8.482;2022-12-18T09:01:56;0.52;;;0.52;;
32505;SDS011;18955;51.224;8.482;2022-12-18T09:04:22;0.30;;;0.30;;
32505;SDS011;18955;51.224;8.482;2022-12-18T09:06:48;0.20;;;0.20;;
32505;SDS011;18955;51.224;8.482;2022-12-18T09:09:15;1.13;;;0.50;;
32505;SDS011;18955;51.224;8.482;2022-12-18T09:11:41;0.93;;;0.88;;
32505;SDS011;18955;51.224;8.482;2022-12-18T09:14:08;0.30;;;0.30;;
32505;SDS011;18955;51.224;8.482;2022-12-18T09:16:35;0.20;;;0.20;;
32505;SDS011;18955;51.224;8.482;2022-12-18T09:19:02;0.28;;;0.28;;
32505;SDS011;18955;51.224;8.482;2022-12-18T09:21:31;0.43;;;0.43;;
32505;SDS011;18955;51.224;8.482;2022-12-18T09:23:59;0.20;;;0.20;;
32505;SDS011;18955;51.224;8.482;2022-12-18T09:26:25;0.40;;;0.40;;
32505;SDS011;18955;51.224;8.482;2022-12-18T09:28:52;0.30;;;0.30;;
32505;SDS011;18955;51.224;8.482;2022-12-18T09:31:20;1.65;;;0.45;;
32505;SDS011;18955;51.224;8.482;2022-12-18T09:33:48;0.73;;;0.40;;
32505;SDS011;18955;51.224;8.482;2022-12-18T09:36:15;0.30;;;0.30;;
32505;SDS011;18955;51.224;8.482;2022-12-18T09:38:43;0.30;;;0.30;;
32505;SDS011;18955;51.224;8.482;2022-12-18T09:47:09;0.30;;;0.30;;
32505;SDS011;18955;51.224;8.482;2022-12-18T09:49:46;0.30;;;0.20;;
32505;SDS011;18955;51.224;8.482;2022-12-18T09:55:08;0.20;;;0.20;;
32505;SDS011;18955;51.224;8.482;2022-12-18T09:57:50;0.20;;;0.20;;
32505;SDS011;18955;51.224;8.482;2022-12-18T10:00:21;0.17;;;0.17;;
32505;SDS011;18955;51.224;8.482;2022-12-18T10:02:49;0.17;;;0.17;;
32505;SDS011;18955;51.224;8.482;2022-12-18T10:08:10;0.10;;;0.10;;
32505;SDS011;18955;51.224;8.482;2022-12-18T10:11:14;0.30;;;0.30;;
32505;SDS011;18955;51.224;8.482;2022-12-18T10:13:45;0.57;;;0.30;;
32505;SDS011;18955;51.224;8.482;2022-12-18T10:16:27;0.20;;;0.20;;
32505;SDS011;18955;51.224;8.482;2022-12-18T10:24:59;0.22;;;0.22;;
32505;SDS011;18955;51.224;8.482;2022-12-18T10:27:30;0.20;;;0.20;;
32505;SDS011;18955;51.224;8.482;2022-12-18T10:29:57;0.70;;;0.70;;
32505;SDS011;18955;51.224;8.482;2022-12-18T10:32:28;0.25;;;0.25;;
32505;SDS011;18955;51.224;8.482;2022-12-18T10:34:56;0.40;;;0.40;;
32505;SDS011;18955;51.224;8.482;2022-12-18T10:37:25;0.52;;;0.32;;
32505;SDS011;18955;51.224;8.482;2022-12-18T10:40:15;0.20;;;0.20;;
32505;SDS011;18955;51.224;8.482;2022-12-18T10:42:41;0.30;;;0.30;;
32505;SDS011;18955;51.224;8.482;2022-12-18T10:45:16;0.63;;;0.63;;
32505;SDS011;18955;51.224;8.482;2022-12-18T10:47:46;0.20;;;0.20;;
32505;SDS011;18955;51.224;8.482;2022-12-18T10:50:23;0.68;;;0.40;;
32505;SDS011;18955;51.224;8.482;2022-12-18T10:52:54;0.40;;;0.32;;
32505;SDS011;18955;51.224;8.482;2022-12-18T10:55:22;0.20;;;0.20;;
32505;SDS011;18955;51.224;8.482;2022-12-18T10:57:53;0.28;;;0.28;;
32505;SDS011;18955;51.224;8.482;2022-12-18T11:02:50;0.28;;;0.28;;
32505;SDS011;18955;51.224;8.482;2022-12-18T11:07:52;0.20;;;0.20;;
32505;SDS011;18955;51.224;8.482;2022-12-18T11:10:23;0.40;;;0.25;;
32505;SDS011;18955;51.224;8.482;2022-12-18T11:12:53;0.28;;;0.28;;
32505;SDS011;18955;51.224;8.482;2022-12-18T11:15:21;0.20;;;0.20;;
32505;SDS011;18955;51.224;8.482;2022-12-18T11:17:53;0.20;;;0.20;;
32505;SDS011;18955;51.224;8.482;2022-12-18T11:23:03;0.30;;;0.30;;
32505;SDS011;18955;51.224;8.482;2022-12-18T11:25:35;0.10;;;0.10;;
32505;SDS011;18955;51.224;8.482;2022-12-18T11:28:03;0.52;;;0.52;;
32505;SDS011;18955;51.224;8.482;2022-12-18T11:30:49;0.20;;;0.20;;
32505;SDS011;18955;51.224;8.482;2022-12-18T11:36:46;0.95;;;0.43;;
32505;SDS011;18955;51.224;8.482;2022-12-18T11:39:57;0.85;;;0.85;;
32505;SDS011;18955;51.224;8.482;2022-12-18T11:42:19;0.30;;;0.30;;
32505;SDS011;18955;51.224;8.482;2022-12-18T11:50:25;0.20;;;0.20;;
32505;SDS011;18955;51.224;8.482;2022-12-18T11:53:15;1.98;;;0.47;;
32505;SDS011;18955;51.224;8.482;2022-12-18T12:17:01;0.43;;;0.38;;
32505;SDS011;18955;51.224;8.482;2022-12-18T12:19:53;0.10;;;0.10;;
32505;SDS011;18955;51.224;8.482;2022-12-18T12:33:43;1.42;;;0.68;;
32505;SDS011;18955;51.224;8.482;2022-12-18T12:36:22;0.30;;;0.30;;
32505;SDS011;18955;51.224;8.482;2022-12-18T12:38:52;1.35;;;0.70;;
32505;SDS011;18955;51.224;8.482;2022-12-18T12:41:26;0.25;;;0.25;;
32505;SDS011;18955;51.224;8.482;2022-12-18T12:44:38;0.63;;;0.60;;
32505;SDS011;18955;51.224;8.482;2022-12-18T12:47:16;0.20;;;0.20;;
32505;SDS011;18955;51.224;8.482;2022-12-18T12:49:48;0.60;;;0.60;;
32505;SDS011;18955;51.224;8.482;2022-12-18T12:55:17;0.20;;;0.20;;
32505;SDS011;18955;51.224;8.482;2022-12-18T12:57:58;2.17;;;0.98;;
32505;SDS011;18955;51.224;8.482;2022-12-18T13:00:43;2.08;;;1.27;;
32505;SDS011;18955;51.224;8.482;2022-12-18T13:09:00;0.65;;;0.57;;
32505;SDS011;18955;51.224;8.482;2022-12-18T13:11:30;0.88;;;0.45;;
32505;SDS011;18955;51.224;8.482;2022-12-18T13:14:28;0.25;;;0.25;;
32505;SDS011;18955;51.224;8.482;2022-12-18T13:28:00;0.75;;;0.63;;
32505;SDS011;18955;51.224;8.482;2022-12-18T13:30:48;1.05;;;0.98;;
32505;SDS011;18955;51.224;8.482;2022-12-18T13:40:58;0.95;;;0.95;;
32505;SDS011;18955;51.224;8.482;2022-12-18T13:43:47;2.42;;;0.85;;
32505;SDS011;18955;51.224;8.482;2022-12-18T13:49:05;1.65;;;0.77;;
32505;SDS011;18955;51.224;8.482;2022-12-18T13:51:35;1.17;;;0.63;;
32505;SDS011;18955;51.224;8.482;2022-12-18T13:54:18;2.95;;;1.17;;
32505;SDS011;18955;51.224;8.482;2022-12-18T13:56:55;0.68;;;0.68;;
32505;SDS011;18955;51.224;8.482;2022-12-18T14:06:47;1.25;;;0.93;;
32505;SDS011;18955;51.224;8.482;2022-12-18T14:09:23;1.70;;;1.33;;
32505;SDS011;18955;51.224;8.482;2022-12-18T14:11:55;0.30;;;0.28;;
32505;SDS011;18955;51.224;8.482;2022-12-18T14:14:45;4.38;;;1.30;;
32505;SDS011;18955;51.224;8.482;2022-12-18T14:17:14;2.75;;;1.15;;
32505;SDS011;18955;51.224;8.482;2022-12-18T14:19:42;2.70;;;1.13;;
32505;SDS011;18955;51.224;8.482;2022-12-18T14:22:23;4.80;;;1.75;;
32505;SDS011;18955;51.224;8.482;2022-12-18T14:27:42;7.03;;;1.90;;
32505;SDS011;18955;51.224;8.482;2022-12-18T14:30:29;2.83;;;1.40;;
32505;SDS011;18955;51.224;8.482;2022-12-18T14:33:16;1.65;;;0.88;;
32505;SDS011;18955;51.224;8.482;2022-12-18T14:38:22;0.93;;;0.90;;
32505;SDS011;18955;51.224;8.482;2022-12-18T14:40:52;2.80;;;1.20;;
32505;SDS011;18955;51.224;8.482;2022-12-18T14:43:39;0.52;;;0.40;;
32505;SDS011;18955;51.224;8.482;2022-12-18T14:46:53;3.60;;;1.20;;
32505;SDS011;18955;51.224;8.482;2022-12-18T14:51:48;1.70;;;1.05;;
32505;SDS011;18955;51.224;8.482;2022-12-18T14:54:20;1.27;;;1.15;;
32505;SDS011;18955;51.224;8.482;2022-12-18T14:56:48;0.80;;;0.80;;
32505;SDS011;18955;51.224;8.482;2022-12-18T15:04:38;4.93;;;2.10;;
32505;SDS011;18955;51.224;8.482;2022-12-18T15:07:23;3.65;;;1.25;;
32505;SDS011;18955;51.224;8.482;2022-12-18T15:10:26;3.95;;;1.67;;
32505;SDS011;18955;51.224;8.482;2022-12-18T15:18:00;5.75;;;2.67;;
32505;SDS011;18955;51.224;8.482;2022-12-18T15:20:27;3.80;;;2.42;;
32505;SDS011;18955;51.224;8.482;2022-12-18T15:22:57;4.03;;;1.15;;
32505;SDS011;18955;51.224;8.482;2022-12-18T15:25:28;0.43;;;0.43;;
32505;SDS011;18955;51.224;8.482;2022-12-18T15:27:59;4.20;;;1.98;;
32505;SDS011;18955;51.224;8.482;2022-12-18T15:30:26;3.65;;;2.05;;
32505;SDS011;18955;51.224;8.482;2022-12-18T15:32:52;3.63;;;1.98;;
32505;SDS011;18955;51.224;8.482;2022-12-18T15:35:38;3.72;;;1.90;;
32505;SDS011;18955;51.224;8.482;2022-12-18T15:38:06;3.30;;;1.65;;
32505;SDS011;18955;51.224;8.482;2022-12-18T15:40:33;2.53;;;1.23;;
32505;SDS011;18955;51.224;8.482;2022-12-18T15:42:59;5.22;;;1.77;;
32505;SDS011;18955;51.224;8.482;2022-12-18T15:45:43;4.85;;;2.38;;
32505;SDS011;18955;51.224;8.482;2022-12-18T15:48:17;0.77;;;0.77;;
32505;SDS011;18955;51.224;8.482;2022-12-18T15:50:49;10.32;;;2.03;;
32505;SDS011;18955;51.224;8.482;2022-12-18T15:53:17;4.00;;;2.22;;
32505;SDS011;18955;51.224;8.482;2022-12-18T15:55:43;3.58;;;1.67;;
32505;SDS011;18955;51.224;8.482;2022-12-18T15:58:28;4.88;;;2.17;;
32505;SDS011;18955;51.224;8.482;2022-12-18T16:00:55;3.88;;;2.15;;
32505;SDS011;18955;51.224;8.482;2022-12-18T16:03:23;3.38;;;0.98;;
32505;SDS011;18955;51.224;8.482;2022-12-18T16:05:50;7.03;;;1.90;;
32505;SDS011;18955;51.224;8.482;2022-12-18T16:08:16;4.38;;;1.92;;
32505;SDS011;18955;51.224;8.482;2022-12-18T16:10:42;8.77;;;2.17;;
32505;SDS011;18955;51.224;8.482;2022-12-18T16:13:12;4.63;;;1.52;;
32505;SDS011;18955;51.224;8.482;2022-12-18T16:15:41;3.97;;;1.70;;
32505;SDS011;18955;51.224;8.482;2022-12-18T16:18:07;4.13;;;2.33;;
32505;SDS011;18955;51.224;8.482;2022-12-18T16:20:33;3.00;;;2.05;;
32505;SDS011;18955;51.224;8.482;2022-12-18T16:22:59;9.07;;;2.47;;
32505;SDS011;18955;51.224;8.482;2022-12-18T16:25:27;10.15;;;2.90;;
32505;SDS011;18955;51.224;8.482;2022-12-18T16:27:54;4.43;;;2.03;;
32505;SDS011;18955;51.224;8.482;2022-12-18T16:30:22;9.07;;;2.78;;
32505;SDS011;18955;51.224;8.482;2022-12-18T16:32:53;2.58;;;1.95;;
32505;SDS011;18955;51.224;8.482;2022-12-18T16:35:20;7.03;;;2.47;;
32505;SDS011;18955;51.224;8.482;2022-12-18T16:37:47;4.25;;;2.00;;
32505;SDS011;18955;51.224;8.482;2022-12-18T16:40:15;7.47;;;2.97;;
32505;SDS011;18955;51.224;8.482;2022-12-18T16:42:43;3.58;;;1.67;;
32505;SDS011;18955;51.224;8.482;2022-12-18T16:45:11;1.98;;;1.13;;
32505;SDS011;18955;51.224;8.482;2022-12-18T16:47:40;5.28;;;1.75;;
32505;SDS011;18955;51.224;8.482;2022-12-18T16:50:06;3.85;;;2.83;;
32505;SDS011;18955;51.224;8.482;2022-12-18T16:52:34;14.10;;;2.85;;
32505;SDS011;18955;51.224;8.482;2022-12-18T16:55:00;5.93;;;1.67;;
32505;SDS011;18955;51.224;8.482;2022-12-18T16:57:27;1.65;;;1.38;;
32505;SDS011;18955;51.224;8.482;2022-12-18T16:59:53;4.47;;;1.35;;
32505;SDS011;18955;51.224;8.482;2022-12-18T17:02:20;3.35;;;1.63;;
32505;SDS011;18955;51.224;8.482;2022-12-18T17:04:48;14.20;;;2.58;;
32505;SDS011;18955;51.224;8.482;2022-12-18T17:07:14;12.98;;;3.60;;
32505;SDS011;18955;51.224;8.482;2022-12-18T17:09:41;3.28;;;1.90;;
32505;SDS011;18955;51.224;8.482;2022-12-18T17:12:07;1.83;;;1.33;;
32505;SDS011;18955;51.224;8.482;2022-12-18T17:14:35;4.10;;;2.03;;
32505;SDS011;18955;51.224;8.482;2022-12-18T17:17:02;4.13;;;1.67;;
32505;SDS011;18955;51.224;8.482;2022-12-18T17:19:28;3.70;;;1.65;;
32505;SDS011;18955;51.224;8.482;2022-12-18T17:24:21;2.03;;;1.65;;
32505;SDS011;18955;51.224;8.482;2022-12-18T17:29:18;4.07;;;1.60;;
32505;SDS011;18955;51.224;8.482;2022-12-18T17:31:45;5.50;;;2.67;;
32505;SDS011;18955;51.224;8.482;2022-12-18T17:34:13;6.35;;;2.47;;
32505;SDS011;18955;51.224;8.482;2022-12-18T17:36:39;5.25;;;2.00;;
32505;SDS011;18955;51.224;8.482;2022-12-18T17:39:06;4.93;;;2.38;;
32505;SDS011;18955;51.224;8.482;2022-12-18T17:41:32;3.90;;;2.47;;
32505;SDS011;18955;51.224;8.482;2022-12-18T17:44:01;7.07;;;2.00;;
32505;SDS011;18955;51.224;8.482;2022-12-18T17:46:31;7.60;;;1.67;;